createdAt,value
2017-10-03T00:32:57.873Z,19.70
2017-10-03T00:35:25.143Z,19.69
2017-10-03T00:37:52.496Z,19.68
2017-10-03T00:40:19.733Z,19.67
2017-10-03T01:15:57.436Z,19.55
2017-10-03T01:18:24.657Z,19.49
2017-10-03T01:20:51.854Z,19.46
2017-10-03T01:23:19.335Z,19.43
2017-10-03T01:25:46.678Z,19.39
2017-10-03T01:28:13.931Z,19.33
2017-10-03T01:30:41.179Z,19.29
2017-10-03T01:33:08.507Z,19.25
2017-10-03T01:35:35.747Z,19.24
2017-10-03T01:38:02.922Z,19.20
2017-10-03T01:40:30.368Z,19.18
2017-10-03T01:42:57.846Z,19.17
2017-10-03T01:45:25.219Z,19.14
2017-10-03T01:50:34.862Z,19.10
2017-10-03T01:53:02.070Z,19.08
2017-10-03T01:55:29.293Z,19.05
2017-10-03T01:57:56.514Z,19.03
2017-10-03T02:00:23.771Z,19.02
2017-10-03T02:02:59.580Z,19.00
2017-10-03T02:05:26.849Z,18.96
2017-10-03T02:07:54.142Z,18.91
2017-10-03T02:10:21.502Z,18.90
2017-10-03T02:12:48.763Z,18.87
2017-10-03T02:15:15.930Z,18.87
2017-10-03T02:17:43.349Z,18.88
2017-10-03T02:20:10.532Z,18.88
2017-10-03T02:22:37.734Z,18.86
2017-10-03T02:25:04.967Z,18.83
2017-10-03T02:27:32.167Z,18.81
2017-10-03T02:29:59.627Z,18.79
2017-10-03T02:32:27.484Z,18.78
2017-10-03T02:34:54.762Z,18.76
2017-10-03T02:37:22.352Z,18.73
2017-10-03T02:39:49.821Z,18.73
2017-10-03T02:42:17.121Z,18.69
2017-10-03T02:44:44.354Z,18.67
2017-10-03T02:47:11.599Z,18.69
2017-10-03T02:49:38.787Z,18.68
2017-10-03T02:52:06.012Z,18.67
2017-10-03T02:54:33.266Z,18.66
2017-10-03T02:57:00.606Z,18.65
2017-10-03T02:59:49.088Z,18.64
2017-10-03T03:02:16.387Z,18.60
2017-10-03T03:04:43.715Z,18.62
2017-10-03T03:09:43.318Z,18.55
2017-10-03T03:12:10.511Z,18.55
2017-10-03T03:14:37.708Z,18.52
2017-10-03T03:17:04.970Z,18.49
2017-10-03T03:19:32.204Z,18.49
2017-10-03T03:21:59.454Z,18.50
2017-10-03T03:24:26.679Z,18.47
2017-10-03T03:26:53.886Z,18.46
2017-10-03T03:29:21.134Z,18.44
2017-10-03T03:31:48.543Z,18.46
2017-10-03T03:34:15.746Z,18.44
2017-10-03T03:36:42.944Z,18.43
2017-10-03T03:39:10.177Z,18.38
2017-10-03T03:41:37.475Z,18.38
2017-10-03T03:44:04.644Z,18.39
2017-10-03T03:46:31.871Z,18.38
2017-10-03T03:48:59.075Z,18.38
2017-10-03T03:51:27.190Z,18.40
2017-10-03T03:53:54.483Z,18.42
2017-10-03T03:56:21.676Z,18.43
2017-10-03T03:58:48.870Z,18.46
2017-10-03T04:01:16.066Z,18.52
2017-10-03T04:03:43.254Z,18.52
2017-10-03T04:06:10.487Z,18.56
2017-10-03T04:08:37.813Z,18.60
2017-10-03T04:11:05.072Z,18.66
2017-10-03T04:13:32.355Z,18.70
2017-10-03T04:15:59.574Z,18.68
2017-10-03T04:18:26.861Z,18.70
2017-10-03T04:20:54.080Z,18.71
2017-10-03T04:23:21.349Z,18.75
2017-10-03T04:25:48.532Z,18.82
2017-10-03T04:28:15.856Z,18.83
2017-10-03T04:30:43.099Z,18.82
2017-10-03T04:33:12.323Z,18.80
2017-10-03T04:35:39.722Z,18.78
2017-10-03T04:38:06.922Z,18.79
2017-10-03T04:40:34.213Z,18.80
2017-10-03T04:43:02.547Z,18.79
2017-10-03T04:45:29.738Z,18.79
2017-10-03T04:47:57.027Z,18.81
2017-10-03T04:50:24.268Z,18.84
2017-10-03T04:52:51.587Z,18.92
2017-10-03T04:55:18.863Z,18.97
2017-10-03T04:57:46.111Z,19.00
2017-10-03T05:00:13.360Z,19.03
2017-10-03T05:02:40.569Z,19.04
2017-10-03T05:05:08.676Z,19.06
2017-10-03T05:07:36.599Z,19.10
2017-10-03T05:10:04.961Z,19.16
2017-10-03T05:12:33.975Z,19.17
2017-10-03T05:15:01.200Z,19.20
2017-10-03T05:17:28.480Z,19.25
2017-10-03T05:19:55.702Z,19.26
2017-10-03T05:22:22.953Z,19.29
2017-10-03T05:24:50.225Z,19.33
2017-10-03T05:27:17.650Z,19.35
2017-10-03T05:29:44.896Z,19.39
2017-10-03T05:32:12.168Z,19.48
2017-10-03T05:34:39.404Z,19.56
2017-10-03T05:37:06.702Z,19.58
2017-10-03T05:39:34.764Z,19.62
2017-10-03T05:42:01.951Z,19.68
2017-10-03T05:44:29.221Z,19.76
2017-10-03T05:46:56.443Z,19.60
2017-10-03T05:49:27.541Z,19.67
2017-10-03T05:51:54.832Z,19.75
2017-10-03T05:54:24.512Z,19.82
2017-10-03T05:56:54.827Z,19.90
2017-10-03T05:59:22.056Z,19.99
2017-10-03T06:01:49.260Z,20.02
2017-10-03T06:09:20.928Z,20.20
2017-10-03T06:11:52.794Z,20.16
2017-10-03T06:14:20.695Z,20.33
2017-10-03T06:16:47.999Z,20.49
2017-10-03T06:19:15.305Z,20.52
2017-10-03T06:21:42.640Z,20.61
2017-10-03T06:24:10.040Z,20.58
2017-10-03T06:26:37.742Z,20.73
2017-10-03T06:29:06.881Z,20.76
2017-10-03T06:31:38.432Z,20.81
2017-10-03T06:36:43.575Z,20.90
2017-10-03T06:41:43.492Z,21.16
2017-10-03T06:44:11.660Z,21.19
2017-10-03T06:49:18.766Z,21.24
2017-10-03T06:51:46.275Z,21.25
2017-10-03T06:54:13.675Z,21.29
2017-10-03T06:56:41.104Z,21.42
2017-10-03T06:59:09.560Z,21.43
2017-10-03T07:01:37.152Z,21.53
2017-10-03T07:04:04.423Z,21.65
2017-10-03T07:06:31.982Z,21.71
2017-10-03T07:08:59.285Z,21.77
2017-10-03T07:11:29.148Z,21.85
2017-10-03T07:13:58.037Z,21.88
2017-10-03T07:16:25.764Z,21.95
2017-10-03T07:18:55.677Z,21.99
2017-10-03T07:21:23.974Z,22.02
2017-10-03T07:23:51.717Z,22.06
2017-10-03T07:26:19.022Z,22.11
2017-10-03T07:28:46.376Z,22.16
2017-10-03T07:31:17.701Z,22.20
2017-10-03T07:33:45.130Z,22.25
2017-10-03T07:36:12.568Z,22.31
2017-10-03T07:38:40.492Z,22.35
2017-10-03T07:41:08.150Z,22.37
2017-10-03T07:43:35.708Z,22.37
2017-10-03T07:46:03.946Z,22.43
2017-10-03T07:48:31.470Z,22.48
2017-10-03T07:51:00.387Z,22.48
2017-10-03T07:58:35.572Z,22.54
2017-10-03T08:01:02.909Z,22.54
2017-10-03T08:03:31.191Z,22.55
2017-10-03T08:11:04.080Z,22.32
2017-10-03T08:16:06.455Z,22.33
2017-10-03T08:21:07.165Z,22.36
2017-10-03T08:26:12.513Z,22.40
2017-10-03T08:36:18.409Z,22.48
2017-10-03T08:43:52.332Z,22.50
2017-10-03T08:46:19.830Z,22.47
2017-10-03T08:48:50.643Z,22.52
2017-10-03T08:51:21.977Z,22.40
2017-10-03T08:53:51.445Z,22.49
2017-10-03T08:56:19.100Z,22.60
2017-10-03T09:06:29.974Z,22.68
2017-10-03T09:09:00.611Z,22.56
2017-10-03T09:11:28.225Z,22.55
2017-10-03T09:13:55.731Z,22.49
2017-10-03T09:16:25.289Z,22.44
2017-10-03T09:18:53.042Z,22.51
2017-10-03T09:21:20.521Z,22.52
2017-10-03T09:23:48.622Z,22.66
2017-10-03T09:31:19.323Z,22.44
2017-10-03T09:41:24.349Z,22.70
2017-10-03T09:43:52.571Z,22.73
2017-10-03T09:48:52.222Z,22.79
2017-10-03T09:56:25.916Z,22.73
2017-10-03T09:58:56.436Z,22.78
2017-10-03T10:01:26.872Z,22.85
2017-10-03T10:09:02.911Z,22.82
2017-10-03T10:11:30.798Z,22.79
2017-10-03T10:16:31.013Z,22.93
2017-10-03T10:18:58.510Z,22.94
2017-10-03T10:21:27.738Z,22.94
2017-10-03T10:23:55.131Z,23.16
2017-10-03T10:26:25.752Z,23.00
2017-10-03T10:28:52.983Z,23.14
2017-10-03T10:31:20.302Z,23.14
2017-10-03T10:33:48.947Z,23.05
2017-10-03T10:36:16.381Z,23.04
2017-10-03T10:38:45.568Z,23.19
2017-10-03T10:41:12.993Z,23.00
2017-10-03T10:43:40.568Z,23.07
2017-10-03T10:46:08.442Z,23.29
2017-10-03T10:48:38.646Z,23.25
2017-10-03T10:51:08.079Z,23.24
2017-10-03T11:01:18.138Z,23.41
2017-10-03T11:06:22.601Z,23.25
2017-10-03T11:08:50.772Z,23.25
2017-10-03T11:11:22.221Z,23.34
2017-10-03T11:13:53.371Z,23.37
2017-10-03T11:21:28.455Z,23.54
2017-10-03T11:26:31.409Z,23.68
2017-10-03T11:29:00.485Z,23.60
2017-10-03T11:34:01.593Z,23.50
2017-10-03T11:36:29.435Z,23.73
2017-10-03T11:38:56.727Z,23.71
2017-10-03T11:41:24.269Z,23.71
2017-10-03T11:43:51.648Z,23.61
2017-10-03T11:46:23.223Z,23.63
2017-10-03T11:51:23.819Z,23.80
2017-10-03T11:53:51.811Z,23.63
2017-10-03T11:56:19.091Z,23.92
2017-10-03T11:58:46.891Z,23.71
2017-10-03T12:03:46.694Z,23.74
2017-10-03T12:06:14.829Z,23.70
2017-10-03T12:08:43.705Z,23.67
2017-10-03T12:11:11.319Z,23.73
2017-10-03T12:13:39.833Z,23.88
2017-10-03T12:16:08.389Z,23.86
2017-10-03T12:18:35.787Z,23.86
2017-10-03T12:21:03.075Z,23.79
2017-10-03T12:23:30.447Z,23.70
2017-10-03T12:25:59.689Z,23.84
2017-10-03T12:28:27.160Z,23.69
2017-10-03T12:30:54.622Z,23.71
2017-10-03T12:33:21.884Z,23.80
2017-10-03T12:35:49.112Z,23.80
2017-10-03T12:38:17.016Z,23.90
2017-10-03T12:40:44.369Z,23.91
2017-10-03T12:43:12.693Z,23.82
2017-10-03T12:48:11.932Z,23.72
2017-10-03T12:50:41.264Z,23.87
2017-10-03T12:53:08.888Z,23.98
2017-10-03T12:55:36.732Z,23.77
2017-10-03T12:58:04.889Z,23.78
2017-10-03T13:00:32.695Z,24.00
2017-10-03T13:05:33.382Z,23.95
2017-10-03T13:08:00.748Z,23.87
2017-10-03T13:10:28.109Z,24.01
2017-10-03T13:12:55.483Z,23.93
2017-10-03T13:15:23.083Z,23.98
2017-10-03T13:17:50.610Z,24.25
2017-10-03T13:20:18.252Z,23.97
2017-10-03T13:22:46.060Z,24.04
2017-10-03T13:27:45.305Z,23.88
2017-10-03T13:30:13.150Z,23.95
2017-10-03T13:32:40.841Z,24.02
2017-10-03T13:35:08.246Z,23.97
2017-10-03T13:37:36.366Z,23.98
2017-10-03T13:40:03.682Z,24.09
2017-10-03T13:42:33.416Z,24.00
2017-10-03T13:45:00.640Z,24.05
2017-10-03T13:47:27.955Z,24.22
2017-10-03T13:49:55.304Z,23.95
2017-10-03T13:57:25.239Z,24.44
2017-10-03T13:59:52.481Z,24.47
2017-10-03T14:02:20.148Z,24.53
2017-10-03T14:04:47.563Z,24.55
2017-10-03T14:07:15.153Z,24.56
2017-10-03T14:09:42.451Z,24.58
2017-10-03T14:12:09.994Z,24.60
2017-10-03T14:14:37.321Z,24.62
2017-10-03T14:17:04.600Z,24.64
2017-10-03T14:19:31.824Z,24.65
2017-10-03T14:21:59.180Z,24.66
2017-10-03T14:24:26.503Z,24.67
2017-10-03T14:26:53.983Z,24.68
2017-10-03T14:29:21.828Z,24.63
2017-10-03T14:31:49.138Z,24.65
2017-10-03T14:34:16.383Z,24.62
2017-10-03T14:36:43.707Z,24.62
2017-10-03T14:39:11.135Z,24.64
2017-10-03T14:41:38.466Z,24.64
2017-10-03T14:46:39.114Z,24.61
2017-10-03T14:49:07.594Z,24.59
2017-10-03T14:51:34.871Z,24.57
2017-10-03T14:56:35.880Z,24.59
2017-10-03T14:59:05.955Z,24.59
2017-10-03T15:04:05.611Z,24.57
2017-10-03T15:06:33.766Z,24.58
2017-10-03T15:09:01.215Z,24.56
2017-10-03T15:11:28.558Z,24.54
2017-10-03T15:13:55.955Z,24.53
2017-10-03T15:16:23.220Z,24.55
2017-10-03T15:18:50.551Z,24.53
2017-10-03T15:21:18.837Z,24.54
2017-10-03T15:23:46.153Z,24.52
2017-10-03T15:26:14.566Z,24.50
2017-10-03T15:28:44.314Z,24.51
2017-10-03T15:31:11.864Z,24.50
2017-10-03T15:36:13.824Z,24.52
2017-10-03T15:38:41.060Z,24.51
2017-10-03T15:41:08.451Z,24.50
2017-10-03T15:43:35.799Z,24.49
2017-10-03T15:46:03.046Z,24.46
2017-10-03T15:48:30.266Z,24.45
2017-10-03T15:50:57.517Z,24.43
2017-10-03T15:55:56.948Z,24.38
2017-10-03T15:58:24.192Z,24.37
2017-10-03T16:00:51.623Z,24.37
2017-10-03T16:03:18.850Z,24.34
2017-10-03T16:05:46.162Z,24.33
2017-10-03T16:08:13.732Z,24.30
2017-10-03T16:10:42.560Z,24.30
2017-10-03T16:13:12.275Z,24.27
2017-10-03T16:15:39.584Z,24.25
2017-10-03T16:18:06.773Z,24.23
2017-10-03T16:20:33.999Z,24.22
2017-10-03T16:23:01.289Z,24.21
2017-10-03T16:25:28.590Z,24.22
2017-10-03T16:30:32.357Z,24.18
2017-10-03T16:32:59.596Z,24.17
2017-10-03T16:35:26.973Z,24.16
2017-10-03T16:37:54.283Z,24.14
2017-10-03T16:40:21.527Z,24.12
2017-10-03T16:42:48.762Z,24.11
2017-10-03T16:45:16.137Z,24.10
2017-10-03T16:47:43.370Z,24.09
2017-10-03T16:50:10.774Z,24.08
2017-10-03T16:52:38.087Z,24.05
2017-10-03T16:55:05.313Z,24.03
2017-10-03T16:57:32.541Z,24.03
2017-10-03T16:59:59.850Z,24.00
2017-10-03T17:02:27.056Z,23.98
2017-10-03T17:04:54.379Z,23.98
2017-10-03T17:07:21.555Z,23.96
2017-10-03T17:09:48.853Z,23.97
2017-10-03T17:12:16.908Z,23.96
2017-10-03T17:14:44.070Z,23.96
2017-10-03T17:17:11.364Z,23.97
2017-10-03T17:19:38.587Z,23.96
2017-10-03T17:22:05.903Z,23.94
2017-10-03T17:24:33.067Z,23.94
2017-10-03T17:27:01.664Z,23.94
2017-10-03T17:29:28.968Z,23.93
2017-10-03T17:31:56.202Z,23.92
2017-10-03T17:34:23.390Z,23.92
2017-10-03T17:36:50.657Z,23.90
2017-10-03T17:39:17.885Z,23.90
2017-10-03T17:41:45.087Z,23.89
2017-10-03T17:44:12.311Z,23.88
2017-10-03T17:46:39.884Z,23.87
2017-10-03T17:49:07.252Z,23.86
2017-10-03T17:51:34.517Z,23.85
2017-10-03T17:54:01.740Z,23.83
2017-10-03T17:56:28.988Z,23.82
2017-10-03T17:58:56.309Z,23.81
2017-10-03T18:01:23.551Z,23.81
2017-10-03T18:03:50.718Z,23.80
2017-10-03T18:06:18.024Z,23.78
2017-10-03T18:08:45.276Z,23.78
2017-10-03T18:11:12.449Z,23.76
2017-10-03T18:13:40.008Z,23.76
2017-10-03T18:16:07.321Z,23.75
2017-10-03T18:18:34.750Z,23.74
2017-10-03T18:21:01.964Z,23.73
2017-10-03T18:23:29.140Z,23.72
2017-10-03T18:25:56.378Z,23.70
2017-10-03T18:28:23.591Z,23.69
2017-10-03T18:30:50.996Z,23.69
2017-10-03T18:33:18.318Z,23.67
2017-10-03T18:35:45.512Z,23.66
2017-10-03T18:38:12.781Z,23.65
2017-10-03T18:40:40.087Z,23.64
2017-10-03T18:43:07.351Z,23.62
2017-10-03T18:45:34.544Z,23.61
2017-10-03T18:48:01.909Z,23.61
2017-10-03T18:50:29.105Z,23.60
2017-10-03T18:52:56.300Z,23.58
2017-10-03T18:55:23.583Z,23.57
2017-10-03T18:57:50.922Z,23.57
2017-10-03T19:00:18.138Z,23.55
2017-10-03T19:02:45.314Z,23.54
2017-10-03T19:05:12.573Z,23.53
2017-10-03T19:07:39.969Z,23.53
2017-10-03T19:10:07.265Z,23.48
2017-10-03T19:12:34.487Z,23.46
2017-10-03T19:15:01.650Z,23.40
2017-10-03T19:17:28.859Z,23.35
2017-10-03T19:19:56.059Z,23.28
2017-10-03T19:22:23.324Z,23.20
2017-10-03T19:24:50.766Z,23.15
2017-10-03T19:27:17.991Z,23.09
2017-10-03T19:29:46.102Z,23.03
2017-10-03T19:32:13.360Z,22.98
2017-10-03T19:34:40.550Z,22.92
2017-10-03T19:37:07.871Z,22.87
2017-10-03T19:39:35.071Z,22.79
2017-10-03T19:42:02.340Z,22.75
2017-10-03T19:44:29.543Z,22.71
2017-10-03T19:46:56.798Z,22.66
2017-10-03T19:49:24.037Z,22.61
2017-10-03T19:51:51.215Z,22.58
2017-10-03T19:54:18.479Z,22.54
2017-10-03T19:56:45.943Z,22.50
2017-10-03T19:59:13.298Z,22.46
2017-10-03T20:01:40.700Z,22.42
2017-10-03T20:04:07.978Z,22.38
2017-10-03T20:06:35.527Z,22.33
2017-10-03T20:09:02.701Z,22.29
2017-10-03T20:11:29.911Z,22.25
2017-10-03T20:13:57.125Z,22.22
2017-10-03T20:16:24.518Z,22.18
2017-10-03T20:18:51.791Z,22.16
2017-10-03T20:21:18.941Z,22.14
2017-10-03T20:23:46.172Z,22.11
2017-10-03T20:26:13.359Z,22.07
2017-10-03T20:28:40.573Z,22.03
2017-10-03T20:31:07.826Z,21.99
2017-10-03T20:33:35.051Z,21.96
2017-10-03T20:36:02.251Z,21.94
2017-10-03T20:38:29.442Z,21.91
2017-10-03T20:40:56.618Z,21.89
2017-10-03T20:43:23.911Z,21.88
2017-10-03T20:45:51.102Z,21.87
2017-10-03T20:48:18.380Z,21.83
2017-10-03T20:50:45.556Z,21.81
2017-10-03T20:53:12.751Z,21.79
2017-10-03T20:55:39.954Z,21.77
2017-10-03T20:58:07.133Z,21.74
2017-10-03T21:00:34.807Z,21.71
2017-10-03T21:03:02.054Z,21.68
2017-10-03T21:05:29.276Z,21.66
2017-10-03T21:07:56.609Z,21.64
2017-10-03T21:10:23.835Z,21.62
2017-10-03T21:12:51.042Z,21.59
2017-10-03T21:15:18.306Z,21.56
2017-10-03T21:17:45.556Z,21.53
2017-10-03T21:20:12.747Z,21.51
2017-10-03T21:22:39.994Z,21.49
2017-10-03T21:25:07.307Z,21.49
2017-10-03T21:27:34.494Z,21.47
2017-10-03T21:30:01.894Z,21.45
2017-10-03T21:32:29.130Z,21.43
2017-10-03T21:34:56.332Z,21.40
2017-10-03T21:37:23.638Z,21.39
2017-10-03T21:39:50.917Z,21.38
2017-10-03T21:42:18.132Z,21.36
2017-10-03T21:44:45.357Z,21.35
2017-10-03T21:47:12.629Z,21.32
2017-10-03T21:49:40.897Z,21.29
2017-10-03T21:52:08.098Z,21.28
2017-10-03T21:54:35.301Z,21.27
2017-10-03T21:57:02.613Z,21.26
2017-10-03T21:59:29.823Z,21.23
2017-10-03T22:01:57.032Z,21.22
2017-10-03T22:04:24.214Z,21.20
2017-10-03T22:06:51.571Z,21.17
2017-10-03T22:09:18.791Z,21.15
2017-10-03T22:11:45.965Z,21.13
2017-10-03T22:14:13.242Z,21.12
2017-10-03T22:16:40.507Z,21.11
2017-10-03T22:19:07.818Z,21.09
2017-10-03T22:21:35.067Z,21.09
2017-10-03T22:24:02.268Z,21.06
2017-10-03T22:26:29.449Z,21.05
2017-10-03T22:28:56.743Z,21.03
2017-10-03T22:31:23.982Z,21.02
2017-10-03T22:33:51.183Z,21.00
2017-10-03T22:36:18.402Z,20.99
2017-10-03T22:38:45.623Z,20.97
2017-10-03T22:41:12.990Z,20.96
2017-10-03T22:43:40.272Z,20.95
2017-10-03T22:46:07.470Z,20.93
2017-10-03T22:48:34.734Z,20.91
2017-10-03T22:51:02.272Z,20.92
2017-10-03T22:53:29.495Z,20.89
2017-10-03T22:55:56.683Z,20.89
2017-10-03T22:58:23.865Z,20.87
2017-10-03T23:00:51.086Z,20.85
2017-10-03T23:03:18.371Z,20.85
2017-10-03T23:05:45.606Z,20.83
2017-10-03T23:08:12.760Z,20.82
2017-10-03T23:10:40.050Z,20.80
2017-10-03T23:13:07.411Z,20.78
2017-10-03T23:15:34.685Z,20.77
2017-10-03T23:18:02.012Z,20.75
2017-10-03T23:20:29.277Z,20.75
2017-10-03T23:22:56.485Z,20.73
2017-10-03T23:25:23.701Z,20.71
2017-10-03T23:27:50.894Z,20.69
2017-10-03T23:30:18.270Z,20.69
2017-10-03T23:32:45.456Z,20.68
2017-10-03T23:35:12.707Z,20.66
2017-10-03T23:37:39.914Z,20.64
2017-10-03T23:40:07.163Z,20.63
2017-10-03T23:42:34.465Z,20.61
2017-10-03T23:45:01.613Z,20.60
2017-10-03T23:47:28.883Z,20.58
2017-10-03T23:49:56.202Z,20.58
2017-10-03T23:52:23.458Z,20.57
2017-10-03T23:54:50.693Z,20.56
2017-10-03T23:57:17.859Z,20.54
2017-10-03T23:59:45.091Z,20.52
